AAL4511 KOMA-KLGA
Flight info
| Callsign | AAL4511 |
|---|---|
| Flight time | 2h 16m |
| Altitude | 39000 |
| Route | DSM GERBS Q186 WEVEL ETG MIP4 |
| Aircraft | B738/M-V/N |
Departure
| Time | 2026-05-01 12:41 |
|---|---|
| Airport | Eppley Airfield (KOMA) |
Arrival
| Time | 2026-05-01 14:58 |
|---|---|
| Airport | LaGuardia Airport (KLGA) |
| Time | Latitude | Longitude | Altitude | Speed | Heading |
|---|---|---|---|---|---|
| 2026-05-01 12:27 | 41.30193 | -95.89882 | 986 ft | 0 kts | 180° |
| 2026-05-01 12:30 | 41.30213 | -95.89882 | 995 ft | 3 kts | 180° |
| 2026-05-01 12:30 | 41.30232 | -95.89882 | 988 ft | 3 kts | 180° |
| 2026-05-01 12:30 | 41.30251 | -95.89882 | 990 ft | 3 kts | 180° |
| 2026-05-01 12:31 | 41.30258 | -95.89882 | 990 ft | 0 kts | 175° |
| 2026-05-01 12:34 | 41.30257 | -95.89881 | 990 ft | 1 kts | 175° |
| 2026-05-01 12:34 | 41.30248 | -95.89880 | 991 ft | 2 kts | 175° |
| 2026-05-01 12:35 | 41.30232 | -95.89878 | 988 ft | 3 kts | 170° |
| 2026-05-01 12:35 | 41.30220 | -95.89862 | 993 ft | 2 kts | 115° |
| 2026-05-01 12:35 | 41.30223 | -95.89841 | 993 ft | 3 kts | 75° |
| 2026-05-01 12:35 | 41.30224 | -95.89809 | 993 ft | 4 kts | 95° |
| 2026-05-01 12:36 | 41.30212 | -95.89775 | 993 ft | 5 kts | 123° |
| 2026-05-01 12:36 | 41.30203 | -95.89730 | 989 ft | 6 kts | 96° |
| 2026-05-01 12:36 | 41.30191 | -95.89671 | 993 ft | 8 kts | 112° |
| 2026-05-01 12:36 | 41.30151 | -95.89611 | 985 ft | 11 kts | 144° |
| 2026-05-01 12:37 | 41.30082 | -95.89548 | 985 ft | 13 kts | 144° |
| 2026-05-01 12:37 | 41.30008 | -95.89478 | 987 ft | 13 kts | 144° |
| 2026-05-01 12:37 | 41.29930 | -95.89402 | 985 ft | 15 kts | 144° |
| 2026-05-01 12:37 | 41.29845 | -95.89323 | 991 ft | 14 kts | 144° |
| 2026-05-01 12:38 | 41.29769 | -95.89250 | 992 ft | 13 kts | 144° |
| 2026-05-01 12:38 | 41.29694 | -95.89179 | 994 ft | 13 kts | 145° |
| 2026-05-01 12:38 | 41.29620 | -95.89109 | 995 ft | 13 kts | 144° |
| 2026-05-01 12:38 | 41.29550 | -95.89042 | 992 ft | 13 kts | 144° |
| 2026-05-01 12:39 | 41.29473 | -95.88969 | 994 ft | 15 kts | 144° |
| 2026-05-01 12:39 | 41.29388 | -95.88888 | 988 ft | 15 kts | 144° |
| 2026-05-01 12:39 | 41.29301 | -95.88805 | 987 ft | 16 kts | 144° |
| 2026-05-01 12:39 | 41.29234 | -95.88734 | 990 ft | 11 kts | 123° |
| 2026-05-01 12:40 | 41.29254 | -95.88641 | 988 ft | 12 kts | 48° |
| 2026-05-01 12:40 | 41.29325 | -95.88653 | 982 ft | 11 kts | 323° |
| 2026-05-01 12:40 | 41.29419 | -95.88742 | 986 ft | 37 kts | 324° |
| 2026-05-01 12:40 | 41.29803 | -95.89108 | 987 ft | 97 kts | 324° |
| 2026-05-01 12:41 | 41.30469 | -95.89744 | 991 ft | 135 kts | 324° |
| 2026-05-01 12:41 | 41.31302 | -95.90523 | 1114 ft | 153 kts | 325° |
| 2026-05-01 12:41 | 41.32184 | -95.91301 | 1569 ft | 151 kts | 327° |
| 2026-05-01 12:41 | 41.33111 | -95.91975 | 2112 ft | 157 kts | 342° |
| 2026-05-01 12:42 | 41.34140 | -95.91469 | 2540 ft | 185 kts | 55° |
| 2026-05-01 12:42 | 41.34135 | -95.89708 | 2804 ft | 204 kts | 109° |
| 2026-05-01 12:42 | 41.33534 | -95.87994 | 3062 ft | 209 kts | 112° |
| 2026-05-01 12:42 | 41.32924 | -95.86206 | 3243 ft | 218 kts | 111° |
| 2026-05-01 12:43 | 41.32323 | -95.84317 | 3430 ft | 227 kts | 110° |
| 2026-05-01 12:43 | 41.31681 | -95.82235 | 3537 ft | 253 kts | 110° |
| 2026-05-01 12:43 | 41.31041 | -95.79973 | 3833 ft | 270 kts | 108° |
| 2026-05-01 12:43 | 41.30502 | -95.77507 | 4127 ft | 286 kts | 99° |
| 2026-05-01 12:44 | 41.30255 | -95.74863 | 4713 ft | 289 kts | 90° |
| 2026-05-01 12:44 | 41.30357 | -95.72195 | 5317 ft | 290 kts | 80° |
| 2026-05-01 12:44 | 41.30911 | -95.66836 | 6549 ft | 295 kts | 81° |
| 2026-05-01 12:45 | 41.31260 | -95.61343 | 7725 ft | 300 kts | 81° |
| 2026-05-01 12:45 | 41.31465 | -95.58566 | 8312 ft | 303 kts | 80° |
| 2026-05-01 12:45 | 41.31676 | -95.55763 | 8888 ft | 306 kts | 81° |
| 2026-05-01 12:46 | 41.31878 | -95.52934 | 9482 ft | 309 kts | 81° |
| 2026-05-01 12:46 | 41.32079 | -95.50073 | 10066 ft | 312 kts | 81° |
| 2026-05-01 12:46 | 41.32286 | -95.47167 | 10488 ft | 319 kts | 81° |
| 2026-05-01 12:46 | 41.32501 | -95.44170 | 10773 ft | 332 kts | 81° |
| 2026-05-01 12:47 | 41.32723 | -95.41047 | 10990 ft | 346 kts | 81° |
| 2026-05-01 12:47 | 41.32945 | -95.37857 | 11347 ft | 355 kts | 81° |
| 2026-05-01 12:47 | 41.33174 | -95.34558 | 11794 ft | 361 kts | 81° |
| 2026-05-01 12:47 | 41.33407 | -95.31215 | 12308 ft | 365 kts | 81° |
| 2026-05-01 12:48 | 41.33641 | -95.27843 | 12843 ft | 368 kts | 81° |
| 2026-05-01 12:48 | 41.33877 | -95.24435 | 13379 ft | 371 kts | 81° |
| 2026-05-01 12:48 | 41.34113 | -95.21001 | 13918 ft | 375 kts | 81° |
| 2026-05-01 12:48 | 41.34351 | -95.17528 | 14401 ft | 378 kts | 81° |
| 2026-05-01 12:49 | 41.34590 | -95.14024 | 14879 ft | 381 kts | 81° |
| 2026-05-01 12:49 | 41.34830 | -95.10493 | 15360 ft | 385 kts | 82° |
| 2026-05-01 12:49 | 41.35070 | -95.06936 | 15834 ft | 388 kts | 82° |
| 2026-05-01 12:49 | 41.35312 | -95.03342 | 16303 ft | 391 kts | 82° |
| 2026-05-01 12:50 | 41.35554 | -94.99722 | 16763 ft | 394 kts | 82° |
| 2026-05-01 12:50 | 41.35794 | -94.96118 | 17230 ft | 397 kts | 82° |
| 2026-05-01 12:50 | 41.36038 | -94.92440 | 17697 ft | 401 kts | 82° |
| 2026-05-01 12:50 | 41.36283 | -94.88729 | 18140 ft | 404 kts | 82° |
| 2026-05-01 12:51 | 41.36528 | -94.84991 | 18559 ft | 407 kts | 82° |
| 2026-05-01 12:51 | 41.36775 | -94.81216 | 18929 ft | 410 kts | 83° |
| 2026-05-01 12:51 | 41.37270 | -94.73581 | 19683 ft | 417 kts | 83° |
| 2026-05-01 12:52 | 41.37519 | -94.69718 | 20049 ft | 420 kts | 83° |
| 2026-05-01 12:52 | 41.38017 | -94.61908 | 20768 ft | 426 kts | 83° |
| 2026-05-01 12:52 | 41.38267 | -94.57964 | 21136 ft | 429 kts | 83° |
| 2026-05-01 12:53 | 41.38764 | -94.50036 | 21850 ft | 435 kts | 83° |
| 2026-05-01 12:53 | 41.39015 | -94.46008 | 22200 ft | 438 kts | 83° |
| 2026-05-01 12:53 | 41.39266 | -94.41949 | 22545 ft | 441 kts | 83° |
| 2026-05-01 12:54 | 41.39518 | -94.37861 | 22896 ft | 444 kts | 83° |
| 2026-05-01 12:54 | 41.40021 | -94.29610 | 23577 ft | 449 kts | 83° |
| 2026-05-01 12:54 | 41.40270 | -94.25496 | 23862 ft | 452 kts | 83° |
| 2026-05-01 12:55 | 41.40773 | -94.17104 | 24410 ft | 458 kts | 83° |
| 2026-05-01 12:55 | 41.41024 | -94.12863 | 24678 ft | 460 kts | 83° |
| 2026-05-01 12:55 | 41.41276 | -94.08602 | 24944 ft | 463 kts | 83° |
| 2026-05-01 12:56 | 41.41528 | -94.04303 | 25209 ft | 465 kts | 84° |
| 2026-05-01 12:56 | 41.41779 | -93.99992 | 25468 ft | 468 kts | 84° |
| 2026-05-01 12:56 | 41.42030 | -93.95654 | 25725 ft | 471 kts | 84° |
| 2026-05-01 12:56 | 41.42280 | -93.91298 | 25986 ft | 473 kts | 84° |
| 2026-05-01 12:57 | 41.42531 | -93.86905 | 26244 ft | 476 kts | 84° |
| 2026-05-01 12:57 | 41.43030 | -93.78064 | 26766 ft | 481 kts | 84° |
| 2026-05-01 12:57 | 41.43280 | -93.73607 | 27023 ft | 484 kts | 84° |
| 2026-05-01 12:58 | 41.43528 | -93.69125 | 27268 ft | 486 kts | 84° |
| 2026-05-01 12:58 | 41.43787 | -93.64628 | 27525 ft | 488 kts | 82° |
| 2026-05-01 12:58 | 41.44155 | -93.60115 | 27777 ft | 490 kts | 82° |
| 2026-05-01 12:59 | 41.44806 | -93.51082 | 28251 ft | 495 kts | 82° |
| 2026-05-01 12:59 | 41.45159 | -93.46502 | 28489 ft | 498 kts | 82° |
| 2026-05-01 12:59 | 41.45867 | -93.37274 | 28963 ft | 503 kts | 82° |
| 2026-05-01 13:00 | 41.46551 | -93.27938 | 29425 ft | 508 kts | 82° |
| 2026-05-01 13:00 | 41.46904 | -93.23239 | 29653 ft | 510 kts | 82° |
| 2026-05-01 13:01 | 41.47594 | -93.13780 | 30122 ft | 515 kts | 82° |
| 2026-05-01 13:01 | 41.47938 | -93.09014 | 30322 ft | 518 kts | 82° |
| 2026-05-01 13:01 | 41.48632 | -92.99408 | 30689 ft | 522 kts | 82° |
| 2026-05-01 13:02 | 41.48971 | -92.94643 | 30896 ft | 524 kts | 83° |
| 2026-05-01 13:07 | 41.55831 | -91.91481 | 36920 ft | 531 kts | 84° |
| 2026-05-01 13:07 | 41.56134 | -91.86574 | 37202 ft | 531 kts | 84° |
| 2026-05-01 13:07 | 41.56436 | -91.81655 | 37453 ft | 532 kts | 84° |
| 2026-05-01 13:08 | 41.56736 | -91.76732 | 37689 ft | 533 kts | 84° |
| 2026-05-01 13:08 | 41.57034 | -91.71797 | 37921 ft | 533 kts | 84° |
| 2026-05-01 13:08 | 41.57328 | -91.66909 | 38149 ft | 534 kts | 84° |
| 2026-05-01 13:08 | 41.57623 | -91.61958 | 38374 ft | 535 kts | 84° |
| 2026-05-01 13:09 | 41.57917 | -91.56994 | 38598 ft | 535 kts | 84° |
| 2026-05-01 13:09 | 41.58208 | -91.52022 | 38820 ft | 536 kts | 84° |
| 2026-05-01 13:09 | 41.58497 | -91.47062 | 39003 ft | 536 kts | 84° |
| 2026-05-01 13:09 | 41.58785 | -91.42097 | 39118 ft | 534 kts | 84° |
| 2026-05-01 13:10 | 41.59068 | -91.37164 | 39117 ft | 529 kts | 84° |
| 2026-05-01 13:10 | 41.59618 | -91.27475 | 39114 ft | 524 kts | 84° |
| 2026-05-01 13:11 | 41.60161 | -91.17778 | 39113 ft | 522 kts | 84° |
| 2026-05-01 13:11 | 41.60693 | -91.08102 | 39111 ft | 522 kts | 84° |
| 2026-05-01 13:12 | 41.61217 | -90.98445 | 39104 ft | 521 kts | 84° |
| 2026-05-01 13:12 | 41.61733 | -90.88787 | 39101 ft | 521 kts | 84° |
| 2026-05-01 13:13 | 41.62240 | -90.79132 | 39108 ft | 521 kts | 85° |
| 2026-05-01 13:13 | 41.62741 | -90.69447 | 39118 ft | 522 kts | 85° |
| 2026-05-01 13:14 | 41.63234 | -90.59759 | 39116 ft | 522 kts | 85° |
| 2026-05-01 13:14 | 41.63716 | -90.50120 | 39117 ft | 523 kts | 85° |
| 2026-05-01 13:15 | 41.64193 | -90.40423 | 39117 ft | 523 kts | 85° |
| 2026-05-01 13:15 | 41.64586 | -90.32288 | 39114 ft | 522 kts | 85° |
| 2026-05-01 13:16 | 41.65047 | -90.22603 | 39114 ft | 522 kts | 85° |
| 2026-05-01 13:16 | 41.65497 | -90.12987 | 39113 ft | 522 kts | 85° |
| 2026-05-01 13:17 | 41.66378 | -89.93612 | 39121 ft | 521 kts | 85° |
| 2026-05-01 13:18 | 41.67017 | -89.79098 | 39123 ft | 521 kts | 85° |
| 2026-05-01 13:18 | 41.67433 | -89.69426 | 39124 ft | 521 kts | 85° |
| 2026-05-01 13:19 | 41.67841 | -89.59743 | 39125 ft | 521 kts | 85° |
| 2026-05-01 13:20 | 41.68437 | -89.45208 | 39124 ft | 521 kts | 85° |
| 2026-05-01 13:20 | 41.68822 | -89.35585 | 39119 ft | 521 kts | 85° |
| 2026-05-01 13:21 | 41.69389 | -89.21047 | 39115 ft | 522 kts | 86° |
| 2026-05-01 13:21 | 41.69757 | -89.11321 | 39118 ft | 523 kts | 86° |
| 2026-05-01 13:22 | 41.70118 | -89.01595 | 39111 ft | 523 kts | 86° |
| 2026-05-01 13:22 | 41.70470 | -88.91854 | 39108 ft | 523 kts | 86° |
| 2026-05-01 13:23 | 41.70812 | -88.82183 | 39103 ft | 524 kts | 86° |
| 2026-05-01 13:23 | 41.71149 | -88.72433 | 39098 ft | 524 kts | 86° |
| 2026-05-01 13:24 | 41.71477 | -88.62686 | 39099 ft | 524 kts | 86° |
| 2026-05-01 13:25 | 41.71954 | -88.48066 | 39100 ft | 524 kts | 86° |
| 2026-05-01 13:25 | 41.72261 | -88.38318 | 39098 ft | 524 kts | 86° |
| 2026-05-01 13:26 | 41.72561 | -88.28557 | 39096 ft | 524 kts | 86° |
| 2026-05-01 13:26 | 41.72850 | -88.18859 | 39090 ft | 524 kts | 86° |
| 2026-05-01 13:27 | 41.73133 | -88.09099 | 39101 ft | 524 kts | 86° |
| 2026-05-01 13:27 | 41.73542 | -87.94447 | 39087 ft | 525 kts | 87° |
| 2026-05-01 13:28 | 41.73934 | -87.79776 | 39085 ft | 525 kts | 87° |
| 2026-05-01 13:29 | 41.74424 | -87.60284 | 39090 ft | 525 kts | 87° |
| 2026-05-01 13:31 | 41.75100 | -87.30979 | 39077 ft | 522 kts | 87° |
| 2026-05-01 13:32 | 41.75603 | -87.06740 | 39079 ft | 521 kts | 88° |
| 2026-05-01 13:33 | 41.76055 | -86.82459 | 39080 ft | 522 kts | 88° |
| 2026-05-01 13:34 | 41.76381 | -86.63018 | 39079 ft | 522 kts | 88° |
| 2026-05-01 13:35 | 41.76603 | -86.48439 | 39062 ft | 522 kts | 88° |
| 2026-05-01 13:36 | 41.76806 | -86.33916 | 39060 ft | 522 kts | 88° |
| 2026-05-01 13:36 | 41.76992 | -86.19341 | 39053 ft | 522 kts | 88° |
| 2026-05-01 13:37 | 41.77105 | -86.09609 | 39050 ft | 522 kts | 88° |
| 2026-05-01 13:37 | 41.77211 | -85.99878 | 39052 ft | 523 kts | 88° |
| 2026-05-01 13:38 | 41.77353 | -85.85337 | 39051 ft | 522 kts | 89° |
| 2026-05-01 13:39 | 41.77438 | -85.75571 | 39051 ft | 522 kts | 89° |
| 2026-05-01 13:39 | 41.77515 | -85.65828 | 39034 ft | 523 kts | 89° |
| 2026-05-01 13:40 | 41.77584 | -85.56078 | 39032 ft | 523 kts | 89° |
| 2026-05-01 13:40 | 41.77643 | -85.46400 | 39033 ft | 523 kts | 89° |
| 2026-05-01 13:41 | 41.77696 | -85.36661 | 39028 ft | 523 kts | 89° |
| 2026-05-01 13:41 | 41.77740 | -85.26902 | 39023 ft | 524 kts | 89° |
| 2026-05-01 13:42 | 41.77775 | -85.17136 | 39025 ft | 524 kts | 89° |
| 2026-05-01 13:42 | 41.77803 | -85.07377 | 39024 ft | 524 kts | 89° |
| 2026-05-01 13:43 | 41.77816 | -85.00827 | 39025 ft | 524 kts | 89° |
| 2026-05-01 13:43 | 41.77833 | -84.87751 | 39020 ft | 524 kts | 89° |
| 2026-05-01 13:44 | 41.77835 | -84.77973 | 39016 ft | 524 kts | 89° |
| 2026-05-01 13:44 | 41.77830 | -84.68265 | 39018 ft | 524 kts | 89° |
| 2026-05-01 13:45 | 41.77816 | -84.58498 | 39017 ft | 524 kts | 90° |
| 2026-05-01 13:45 | 41.77793 | -84.48717 | 39017 ft | 525 kts | 90° |
| 2026-05-01 13:46 | 41.77763 | -84.38940 | 39019 ft | 525 kts | 90° |
| 2026-05-01 13:46 | 41.77721 | -84.29161 | 39026 ft | 525 kts | 90° |
| 2026-05-01 13:47 | 41.77673 | -84.19370 | 39019 ft | 525 kts | 90° |
| 2026-05-01 13:47 | 41.77615 | -84.09588 | 39020 ft | 525 kts | 90° |
| 2026-05-01 13:48 | 41.77549 | -83.99800 | 39023 ft | 525 kts | 90° |
| 2026-05-01 13:48 | 41.77476 | -83.90078 | 39021 ft | 525 kts | 90° |
| 2026-05-01 13:49 | 41.77394 | -83.80286 | 39012 ft | 526 kts | 90° |
| 2026-05-01 13:49 | 41.77303 | -83.70489 | 39015 ft | 526 kts | 90° |
| 2026-05-01 13:50 | 41.77204 | -83.60688 | 39016 ft | 526 kts | 90° |
| 2026-05-01 13:50 | 41.76767 | -83.50915 | 39010 ft | 526 kts | 97° |
| 2026-05-01 13:51 | 41.75780 | -83.41197 | 39013 ft | 526 kts | 98° |
| 2026-05-01 13:51 | 41.74855 | -83.31479 | 39014 ft | 526 kts | 98° |
| 2026-05-01 13:52 | 41.73899 | -83.21832 | 39017 ft | 526 kts | 98° |
| 2026-05-01 13:52 | 41.72937 | -83.12131 | 39004 ft | 526 kts | 98° |
| 2026-05-01 13:53 | 41.71970 | -83.02438 | 38997 ft | 525 kts | 98° |
| 2026-05-01 13:53 | 41.70502 | -82.87935 | 38991 ft | 524 kts | 98° |
| 2026-05-01 13:54 | 41.69513 | -82.78280 | 38991 ft | 524 kts | 98° |
| 2026-05-01 13:54 | 41.68519 | -82.68636 | 38991 ft | 523 kts | 98° |
| 2026-05-01 13:55 | 41.67516 | -82.58996 | 38992 ft | 523 kts | 98° |
| 2026-05-01 13:55 | 41.66507 | -82.49374 | 39005 ft | 523 kts | 98° |
| 2026-05-01 13:56 | 41.65488 | -82.39738 | 39011 ft | 523 kts | 98° |
| 2026-05-01 13:56 | 41.64468 | -82.30173 | 39008 ft | 522 kts | 98° |
| 2026-05-01 13:57 | 41.63603 | -82.22118 | 39010 ft | 522 kts | 99° |
| 2026-05-01 13:57 | 41.62394 | -82.10949 | 39006 ft | 521 kts | 99° |
| 2026-05-01 13:58 | 41.61345 | -82.01350 | 38994 ft | 522 kts | 99° |
| 2026-05-01 13:58 | 41.60289 | -81.91757 | 38987 ft | 522 kts | 99° |
| 2026-05-01 13:59 | 41.59225 | -81.82167 | 38979 ft | 521 kts | 99° |
| 2026-05-01 13:59 | 41.58153 | -81.72582 | 38977 ft | 521 kts | 99° |
| 2026-05-01 14:00 | 41.57081 | -81.63068 | 38983 ft | 521 kts | 99° |
| 2026-05-01 14:00 | 41.55993 | -81.53486 | 38984 ft | 522 kts | 99° |
| 2026-05-01 14:01 | 41.55076 | -81.45461 | 38995 ft | 522 kts | 99° |
| 2026-05-01 14:01 | 41.54126 | -81.35916 | 38994 ft | 522 kts | 97° |
| 2026-05-01 14:02 | 41.53224 | -81.26308 | 38987 ft | 522 kts | 97° |
| 2026-05-01 14:02 | 41.52356 | -81.16687 | 38987 ft | 522 kts | 97° |
| 2026-05-01 14:03 | 41.51455 | -81.07067 | 38990 ft | 522 kts | 98° |
| 2026-05-01 14:03 | 41.50559 | -80.97448 | 38983 ft | 522 kts | 98° |
| 2026-05-01 14:04 | 41.49649 | -80.87835 | 38981 ft | 522 kts | 98° |
| 2026-05-01 14:04 | 41.48732 | -80.78211 | 38975 ft | 522 kts | 98° |
| 2026-05-01 14:05 | 41.47808 | -80.68604 | 38974 ft | 522 kts | 98° |
| 2026-05-01 14:05 | 41.46874 | -80.58987 | 38975 ft | 522 kts | 98° |
| 2026-05-01 14:06 | 41.45940 | -80.49448 | 38961 ft | 522 kts | 98° |
| 2026-05-01 14:06 | 41.44994 | -80.39867 | 38975 ft | 521 kts | 98° |
| 2026-05-01 14:07 | 41.44041 | -80.30303 | 38982 ft | 520 kts | 98° |
| 2026-05-01 14:08 | 41.42597 | -80.15965 | 38983 ft | 519 kts | 98° |
| 2026-05-01 14:08 | 41.41637 | -80.06413 | 38983 ft | 520 kts | 98° |
| 2026-05-01 14:09 | 41.40739 | -79.96857 | 38982 ft | 520 kts | 98° |
| 2026-05-01 14:09 | 41.39792 | -79.87305 | 38983 ft | 520 kts | 98° |
| 2026-05-01 14:10 | 41.38866 | -79.77815 | 38981 ft | 520 kts | 98° |
| 2026-05-01 14:10 | 41.37915 | -79.68272 | 38993 ft | 520 kts | 98° |
| 2026-05-01 14:11 | 41.36961 | -79.58731 | 38991 ft | 520 kts | 98° |
| 2026-05-01 14:11 | 41.35512 | -79.44423 | 38994 ft | 520 kts | 98° |
| 2026-05-01 14:12 | 41.34538 | -79.34883 | 38992 ft | 519 kts | 98° |
| 2026-05-01 14:12 | 41.33558 | -79.25384 | 38987 ft | 518 kts | 99° |
| 2026-05-01 14:13 | 41.32738 | -79.17488 | 38979 ft | 518 kts | 99° |
| 2026-05-01 14:13 | 41.31584 | -79.06474 | 38973 ft | 517 kts | 99° |
| 2026-05-01 14:14 | 41.30582 | -78.96990 | 38970 ft | 517 kts | 99° |
| 2026-05-01 14:14 | 41.29574 | -78.87522 | 38968 ft | 517 kts | 99° |
| 2026-05-01 14:15 | 41.28558 | -78.78064 | 38971 ft | 517 kts | 99° |
| 2026-05-01 14:15 | 41.27535 | -78.68611 | 38998 ft | 517 kts | 99° |
| 2026-05-01 14:16 | 41.26502 | -78.59145 | 39000 ft | 518 kts | 99° |
| 2026-05-01 14:16 | 41.25460 | -78.49673 | 38999 ft | 518 kts | 99° |
| 2026-05-01 14:17 | 41.24411 | -78.40207 | 39001 ft | 518 kts | 99° |
| 2026-05-01 14:17 | 41.23353 | -78.30737 | 39008 ft | 518 kts | 100° |
| 2026-05-01 14:18 | 41.22296 | -78.21341 | 39013 ft | 518 kts | 100° |
| 2026-05-01 14:18 | 41.21398 | -78.13419 | 39010 ft | 518 kts | 100° |
| 2026-05-01 14:19 | 41.20028 | -78.02455 | 39015 ft | 517 kts | 101° |
| 2026-05-01 14:19 | 41.18866 | -77.93025 | 39019 ft | 518 kts | 101° |
| 2026-05-01 14:20 | 41.17081 | -77.78869 | 39013 ft | 518 kts | 101° |
| 2026-05-01 14:21 | 41.15895 | -77.69426 | 39015 ft | 518 kts | 101° |
| 2026-05-01 14:21 | 41.14690 | -77.60003 | 38991 ft | 517 kts | 101° |
| 2026-05-01 14:22 | 41.13485 | -77.50593 | 37946 ft | 519 kts | 101° |
| 2026-05-01 14:22 | 41.12875 | -77.45858 | 37313 ft | 521 kts | 101° |
| 2026-05-01 14:22 | 41.12260 | -77.41113 | 36677 ft | 523 kts | 101° |
| 2026-05-01 14:22 | 41.11649 | -77.36412 | 36032 ft | 526 kts | 101° |
| 2026-05-01 14:23 | 41.11025 | -77.31622 | 35360 ft | 529 kts | 102° |
| 2026-05-01 14:23 | 41.10395 | -77.26792 | 34672 ft | 533 kts | 102° |
| 2026-05-01 14:23 | 41.09759 | -77.21942 | 33953 ft | 537 kts | 102° |
| 2026-05-01 14:23 | 41.09113 | -77.17036 | 33165 ft | 539 kts | 102° |
| 2026-05-01 14:24 | 41.08466 | -77.12138 | 32408 ft | 540 kts | 102° |
| 2026-05-01 14:24 | 41.07815 | -77.07216 | 31635 ft | 542 kts | 102° |
| 2026-05-01 14:24 | 41.07161 | -77.02297 | 30853 ft | 543 kts | 102° |
| 2026-05-01 14:24 | 41.06503 | -76.97365 | 30064 ft | 543 kts | 102° |
| 2026-05-01 14:25 | 41.05856 | -76.92517 | 29234 ft | 525 kts | 103° |
| 2026-05-01 14:25 | 41.05229 | -76.87829 | 28491 ft | 507 kts | 103° |
| 2026-05-01 14:25 | 41.04618 | -76.83304 | 27782 ft | 493 kts | 103° |
| 2026-05-01 14:25 | 41.04010 | -76.78832 | 27083 ft | 493 kts | 103° |
| 2026-05-01 14:26 | 41.03403 | -76.74360 | 26385 ft | 494 kts | 103° |
| 2026-05-01 14:26 | 41.02092 | -76.65485 | 24967 ft | 491 kts | 109° |
| 2026-05-01 14:26 | 41.01108 | -76.61186 | 24249 ft | 481 kts | 111° |
| 2026-05-01 14:27 | 41.00090 | -76.57077 | 23580 ft | 459 kts | 112° |
| 2026-05-01 14:27 | 40.99115 | -76.53142 | 22877 ft | 442 kts | 111° |
| 2026-05-01 14:27 | 40.98194 | -76.49270 | 22250 ft | 441 kts | 110° |
| 2026-05-01 14:28 | 40.96347 | -76.41545 | 20993 ft | 439 kts | 111° |
| 2026-05-01 14:28 | 40.95410 | -76.37703 | 20381 ft | 439 kts | 111° |
| 2026-05-01 14:28 | 40.94478 | -76.33860 | 19756 ft | 438 kts | 110° |
| 2026-05-01 14:28 | 40.93553 | -76.30021 | 19131 ft | 437 kts | 110° |
| 2026-05-01 14:29 | 40.92627 | -76.26197 | 18515 ft | 436 kts | 110° |
| 2026-05-01 14:29 | 40.91700 | -76.22397 | 18070 ft | 430 kts | 110° |
| 2026-05-01 14:30 | 40.89088 | -76.11689 | 16799 ft | 396 kts | 109° |
| 2026-05-01 14:30 | 40.88245 | -76.08245 | 16472 ft | 392 kts | 109° |
| 2026-05-01 14:30 | 40.87408 | -76.04832 | 16123 ft | 389 kts | 109° |
| 2026-05-01 14:31 | 40.85750 | -75.98078 | 15441 ft | 383 kts | 109° |
| 2026-05-01 14:31 | 40.84929 | -75.94742 | 15098 ft | 381 kts | 109° |
| 2026-05-01 14:31 | 40.84112 | -75.91428 | 14742 ft | 378 kts | 109° |
| 2026-05-01 14:31 | 40.83300 | -75.88135 | 14402 ft | 375 kts | 109° |
| 2026-05-01 14:32 | 40.82492 | -75.84868 | 14062 ft | 372 kts | 109° |
| 2026-05-01 14:32 | 40.81691 | -75.81633 | 13725 ft | 370 kts | 109° |
| 2026-05-01 14:32 | 40.80893 | -75.78413 | 13383 ft | 367 kts | 109° |
| 2026-05-01 14:32 | 40.80100 | -75.75215 | 13058 ft | 365 kts | 108° |
| 2026-05-01 14:33 | 40.79311 | -75.72039 | 12991 ft | 362 kts | 108° |
| 2026-05-01 14:33 | 40.78531 | -75.68906 | 12994 ft | 363 kts | 108° |
| 2026-05-01 14:33 | 40.77742 | -75.65738 | 13002 ft | 363 kts | 108° |
| 2026-05-01 14:33 | 40.76949 | -75.62561 | 13002 ft | 363 kts | 108° |
| 2026-05-01 14:34 | 40.76158 | -75.59396 | 13006 ft | 363 kts | 108° |
| 2026-05-01 14:34 | 40.75366 | -75.56227 | 13009 ft | 364 kts | 108° |
| 2026-05-01 14:34 | 40.74572 | -75.53060 | 13010 ft | 364 kts | 108° |
| 2026-05-01 14:34 | 40.73777 | -75.49888 | 13010 ft | 363 kts | 108° |
| 2026-05-01 14:35 | 40.72983 | -75.46727 | 13015 ft | 363 kts | 109° |
| 2026-05-01 14:35 | 40.72312 | -75.43519 | 13015 ft | 363 kts | 104° |
| 2026-05-01 14:35 | 40.71667 | -75.40332 | 13006 ft | 364 kts | 105° |
| 2026-05-01 14:35 | 40.70999 | -75.37113 | 13012 ft | 364 kts | 105° |
| 2026-05-01 14:36 | 40.70356 | -75.33877 | 13011 ft | 364 kts | 104° |
| 2026-05-01 14:36 | 40.69724 | -75.30640 | 13011 ft | 365 kts | 104° |
| 2026-05-01 14:36 | 40.69080 | -75.27405 | 13011 ft | 365 kts | 105° |
| 2026-05-01 14:36 | 40.68428 | -75.24169 | 13015 ft | 365 kts | 105° |
| 2026-05-01 14:37 | 40.67779 | -75.20937 | 13011 ft | 365 kts | 104° |
| 2026-05-01 14:37 | 40.67133 | -75.17706 | 13008 ft | 365 kts | 104° |
| 2026-05-01 14:37 | 40.66279 | -75.14552 | 12646 ft | 367 kts | 123° |
| 2026-05-01 14:37 | 40.64725 | -75.11915 | 12157 ft | 362 kts | 135° |
| 2026-05-01 14:38 | 40.62956 | -75.09555 | 11665 ft | 360 kts | 138° |
| 2026-05-01 14:38 | 40.61177 | -75.07281 | 11201 ft | 359 kts | 136° |
| 2026-05-01 14:38 | 40.59469 | -75.04869 | 10719 ft | 359 kts | 133° |
| 2026-05-01 14:38 | 40.57821 | -75.02411 | 10243 ft | 358 kts | 130° |
| 2026-05-01 14:39 | 40.56493 | -74.99694 | 10003 ft | 349 kts | 112° |
| 2026-05-01 14:39 | 40.55581 | -74.96815 | 9989 ft | 333 kts | 109° |
| 2026-05-01 14:39 | 40.54780 | -74.94014 | 9967 ft | 320 kts | 108° |
| 2026-05-01 14:39 | 40.54006 | -74.91328 | 9924 ft | 309 kts | 109° |
| 2026-05-01 14:40 | 40.53219 | -74.88717 | 9910 ft | 307 kts | 110° |
| 2026-05-01 14:40 | 40.52429 | -74.86112 | 9904 ft | 305 kts | 110° |
| 2026-05-01 14:40 | 40.51654 | -74.83519 | 9901 ft | 305 kts | 109° |
| 2026-05-01 14:40 | 40.50880 | -74.80926 | 9890 ft | 304 kts | 109° |
| 2026-05-01 14:41 | 40.50104 | -74.78335 | 9884 ft | 304 kts | 110° |
| 2026-05-01 14:41 | 40.49328 | -74.75753 | 9880 ft | 304 kts | 110° |
| 2026-05-01 14:41 | 40.48550 | -74.73168 | 9883 ft | 304 kts | 110° |
| 2026-05-01 14:41 | 40.47772 | -74.70581 | 9876 ft | 304 kts | 110° |
| 2026-05-01 14:42 | 40.46995 | -74.68002 | 9877 ft | 304 kts | 110° |
| 2026-05-01 14:42 | 40.46219 | -74.65426 | 9876 ft | 303 kts | 110° |
| 2026-05-01 14:42 | 40.45442 | -74.62851 | 9878 ft | 303 kts | 110° |
| 2026-05-01 14:42 | 40.44664 | -74.60276 | 9877 ft | 303 kts | 110° |
| 2026-05-01 14:43 | 40.43896 | -74.57735 | 9877 ft | 304 kts | 110° |
| 2026-05-01 14:43 | 40.43164 | -74.55141 | 9874 ft | 302 kts | 100° |
| 2026-05-01 14:43 | 40.43208 | -74.52468 | 9921 ft | 291 kts | 70° |
| 2026-05-01 14:43 | 40.43838 | -74.49946 | 9938 ft | 290 kts | 64° |
| 2026-05-01 14:44 | 40.44565 | -74.47482 | 9933 ft | 290 kts | 64° |
| 2026-05-01 14:44 | 40.45925 | -74.42486 | 9959 ft | 291 kts | 66° |
| 2026-05-01 14:44 | 40.46590 | -74.39972 | 9962 ft | 291 kts | 65° |
| 2026-05-01 14:45 | 40.47265 | -74.37469 | 9967 ft | 290 kts | 65° |
| 2026-05-01 14:45 | 40.48613 | -74.32467 | 9978 ft | 289 kts | 65° |
| 2026-05-01 14:45 | 40.49273 | -74.30001 | 9989 ft | 290 kts | 65° |
| 2026-05-01 14:46 | 40.49945 | -74.27493 | 9988 ft | 290 kts | 65° |
| 2026-05-01 14:46 | 40.51285 | -74.22485 | 9987 ft | 290 kts | 65° |
| 2026-05-01 14:46 | 40.51952 | -74.19984 | 9989 ft | 290 kts | 65° |
| 2026-05-01 14:47 | 40.52622 | -74.17473 | 9986 ft | 290 kts | 65° |
| 2026-05-01 14:47 | 40.53064 | -74.15817 | 9986 ft | 290 kts | 65° |
| 2026-05-01 14:47 | 40.54012 | -74.12498 | 9752 ft | 290 kts | 51° |
| 2026-05-01 14:48 | 40.56340 | -74.09456 | 8846 ft | 281 kts | 34° |
| 2026-05-01 14:48 | 40.57798 | -74.07736 | 8286 ft | 282 kts | 40° |
| 2026-05-01 14:48 | 40.60361 | -74.03840 | 7216 ft | 279 kts | 45° |
| 2026-05-01 14:49 | 40.62880 | -74.00030 | 6619 ft | 278 kts | 53° |
| 2026-05-01 14:49 | 40.63700 | -73.95002 | 6166 ft | 287 kts | 85° |
| 2026-05-01 14:50 | 40.63734 | -73.90627 | 5729 ft | 286 kts | 87° |
| 2026-05-01 14:50 | 40.63733 | -73.84568 | 5138 ft | 282 kts | 87° |
| 2026-05-01 14:51 | 40.63731 | -73.81999 | 4886 ft | 279 kts | 87° |
| 2026-05-01 14:51 | 40.63732 | -73.76954 | 4341 ft | 267 kts | 87° |
| 2026-05-01 14:52 | 40.63740 | -73.72252 | 3750 ft | 247 kts | 88° |
| 2026-05-01 14:52 | 40.63750 | -73.70034 | 3491 ft | 239 kts | 88° |
| 2026-05-01 14:52 | 40.64426 | -73.66090 | 2927 ft | 215 kts | 36° |
| 2026-05-01 14:53 | 40.65745 | -73.65447 | 2707 ft | 201 kts | 355° |
| 2026-05-01 14:53 | 40.67066 | -73.65711 | 2541 ft | 181 kts | 346° |
| 2026-05-01 14:53 | 40.68054 | -73.66539 | 2295 ft | 177 kts | 300° |
| 2026-05-01 14:53 | 40.68475 | -73.68056 | 2091 ft | 175 kts | 292° |
| 2026-05-01 14:54 | 40.68976 | -73.69507 | 2020 ft | 172 kts | 301° |
| 2026-05-01 14:54 | 40.69639 | -73.70840 | 2010 ft | 175 kts | 306° |
| 2026-05-01 14:54 | 40.70321 | -73.72144 | 1997 ft | 165 kts | 305° |
| 2026-05-01 14:54 | 40.70914 | -73.73307 | 1987 ft | 144 kts | 305° |
| 2026-05-01 14:55 | 40.71474 | -73.74404 | 1984 ft | 142 kts | 304° |
| 2026-05-01 14:55 | 40.72032 | -73.75502 | 1992 ft | 145 kts | 305° |
| 2026-05-01 14:55 | 40.72566 | -73.76546 | 1979 ft | 131 kts | 304° |
| 2026-05-01 14:55 | 40.73091 | -73.77562 | 2016 ft | 137 kts | 305° |
| 2026-05-01 14:56 | 40.73637 | -73.78678 | 1669 ft | 154 kts | 306° |
| 2026-05-01 14:56 | 40.74272 | -73.79794 | 1401 ft | 150 kts | 307° |
| 2026-05-01 14:56 | 40.74895 | -73.80862 | 883 ft | 142 kts | 305° |
| 2026-05-01 14:56 | 40.75389 | -73.81899 | 733 ft | 128 kts | 301° |
| 2026-05-01 14:57 | 40.75845 | -73.82923 | 633 ft | 131 kts | 302° |
| 2026-05-01 14:57 | 40.76837 | -73.84969 | 234 ft | 130 kts | 302° |
| 2026-05-01 14:57 | 40.77325 | -73.85965 | 44 ft | 124 kts | 301° |
| 2026-05-01 14:58 | 40.77732 | -73.86814 | 14 ft | 87 kts | 302° |
| 2026-05-01 14:58 | 40.77948 | -73.87264 | 17 ft | 31 kts | 302° |
| 2026-05-01 14:58 | 40.77954 | -73.87404 | 17 ft | 12 kts | 223° |
| 2026-05-01 14:58 | 40.77928 | -73.87420 | 18 ft | 0 kts | 176° |
| 2026-05-01 14:59 | 40.77910 | -73.87409 | 18 ft | 6 kts | 149° |
| 2026-05-01 14:59 | 40.77869 | -73.87330 | 19 ft | 14 kts | 120° |
| 2026-05-01 14:59 | 40.77813 | -73.87262 | 19 ft | 9 kts | 174° |
| 2026-05-01 14:59 | 40.77752 | -73.87223 | 19 ft | 12 kts | 123° |
| 2026-05-01 15:00 | 40.77671 | -73.87048 | 16 ft | 10 kts | 121° |
| 2026-05-01 15:00 | 40.77632 | -73.86964 | 14 ft | 9 kts | 122° |
| 2026-05-01 15:00 | 40.77599 | -73.86894 | 13 ft | 6 kts | 122° |
| 2026-05-01 15:01 | 40.77570 | -73.86846 | 15 ft | 7 kts | 135° |
| 2026-05-01 15:01 | 40.77520 | -73.86807 | 13 ft | 10 kts | 162° |
| 2026-05-01 15:01 | 40.77476 | -73.86801 | 13 ft | 4 kts | 184° |
| 2026-05-01 15:01 | 40.77444 | -73.86798 | 13 ft | 5 kts | 180° |
| 2026-05-01 15:02 | 40.77418 | -73.86814 | 14 ft | 4 kts | 217° |
| 2026-05-01 15:02 | 40.77409 | -73.86828 | 16 ft | 2 kts | 234° |
| 2026-05-01 15:02 | 40.77405 | -73.86838 | 15 ft | 0 kts | 239° |
| 2026-05-01 15:03 | 40.77403 | -73.86842 | 16 ft | 2 kts | 240° |
| 2026-05-01 15:03 | 40.77399 | -73.86854 | 18 ft | 0 kts | 248° |